Latest Weather Observations for Christmas Creek

IDW60801

Issued at 9:04 am WST Sunday 24 September 2017 (issued every 30 minutes, with the page automatically refreshed every 10 minutes)

About weather observations | Map of weather stations | Latest weather observations for WA | Other Formats
Station Details ID: 505049 Name: CHRISTMAS CREEK Lat: -22.36 Lon: 119.65 Height: 437.21 m
Data from the previous 72 hours. | See also: Recent months for locations in Western Australia
Date/Time
WST
Temp
°C
App
Temp
°C
Dew
Point
°C
Rel
Hum
%
Delta-T
°C
Wind Press
QNH
hPa
Press
MSL
hPa
Rain since
9am
mm
Dir  Spd
km/h
Gust
km/h
Spd
kts
Gust
kts
24/09:00am 23.1 19.9 3.1 27 9.8 S 9 17 5 9 1013.6 1011.7 0.0
24/08:30am 22.1 19.1 2.2 27 9.6 SSW 7 13 4 7 1013.7 1011.9 0.0
24/08:00am 21.4 18.1 2.6 29 9.0 S 9 15 5 8 1013.7 1011.9 0.0
24/07:30am 20.1 17.3 3.3 33 8.1 SSW 7 11 4 6 1013.6 1011.7 0.0
24/07:00am 18.4 15.9 3.8 38 7.0 WSW 6 7 3 4 1013.3 1011.4 0.0
24/06:30am 16.2 13.9 2.6 40 6.3 W 4 6 2 3 1012.9 1011.1 0.0
24/06:00am 14.5 12.0 1.8 42 5.7 WNW 4 6 2 3 1012.8 1011.0 0.0
24/05:30am 15.3 12.8 1.4 39 6.2 W 4 6 2 3 1012.6 1010.8 0.0
24/05:00am 14.9 12.3 1.1 39 6.1 SW 4 6 2 3 1012.4 1010.6 0.0
24/04:30am 15.5 12.7 2.0 40 6.1 WSW 6 7 3 4 1012.2 1010.4 0.0
24/04:00am 15.8 12.8 0.8 36 6.7 WSW 6 7 3 4 1012.1 1010.3 0.0
24/03:30am 15.9 13.4 -0.8 32 7.2 W 2 4 1 2 1012.1 1010.3 0.0
24/03:00am 16.5 13.8 0.2 33 7.2 NW 4 6 2 3 1012.1 1010.3 0.0
24/02:30am 17.6 14.3 0.3 31 7.7 NW 7 9 4 5 1012.2 1010.4 0.0
24/02:00am 18.2 15.1 0.4 30 8.0 WNW 6 7 3 4 1012.5 1010.7 0.0
24/01:30am 18.9 15.8 0.0 28 8.5 WNW 6 7 3 4 1012.8 1011.0 0.0
24/01:00am 18.9 15.1 -0.5 27 8.6 WNW 9 11 5 6 1013.0 1011.2 0.0
24/12:30am 18.7 15.8 -1.2 26 8.7 N 4 6 2 3 1013.0 1011.2 0.0
24/12:00am 19.4 16.5 -1.1 25 9.0 WSW 4 6 2 3 1013.0 1011.2 0.0
 
Date/Time
WST
Temp
°C
App
Temp
°C
Dew
Point
°C
Rel
Hum
%
Delta-T
°C
Wind Press
QNH
hPa
Press
MSL
hPa
Rain since
9am
mm
Dir  Spd
km/h
Gust
km/h
Spd
kts
Gust
kts
23/11:30pm 20.5 16.7 -0.7 24 9.5 W 9 11 5 6 1013.0 1011.2 0.0
23/11:00pm 21.0 17.1 -1.5 22 10.0 WNW 9 11 5 6 1013.0 1011.2 0.0
23/10:30pm 22.0 18.0 -2.0 20 10.6 SW 9 13 5 7 1013.0 1011.2 0.0
23/10:00pm 23.8 18.3 -1.9 18 11.6 WNW 17 22 9 12 1012.8 1011.0 0.0
23/09:30pm 24.2 19.0 -2.4 17 11.9 NW 15 19 8 10 1013.0 1011.2 0.0
23/09:00pm 24.5 19.0 -2.1 17 12.0 NW 17 20 9 11 1012.8 1011.0 0.0
23/08:30pm 24.9 19.7 -2.6 16 12.3 NW 15 19 8 10 1012.6 1010.8 0.0
23/08:00pm 25.4 20.3 -2.2 16 12.5 NW 15 19 8 10 1012.4 1010.6 0.0
23/07:30pm 26.4 21.3 -2.3 15 13.1 NW 15 22 8 12 1012.2 1010.4 0.0
23/07:00pm 27.3 22.1 -2.5 14 13.6 NW 15 20 8 11 1011.8 1010.0 0.0
23/06:30pm 28.3 22.7 -2.7 13 14.2 NW 17 24 9 13 1011.6 1009.7 0.0
23/06:00pm 29.2 23.1 -2.0 13 14.6 NW 20 33 11 18 1011.4 1009.5 0.0
23/05:30pm 30.2 23.1 -1.2 13 15.0 NW 26 33 14 18 1011.3 1009.4 0.0
23/05:00pm 30.9 24.1 -1.8 12 15.6 NW 24 41 13 22 1011.1 1009.2 0.0
23/04:30pm 31.4 23.7 -2.6 11 16.0 WNW 28 37 15 20 1011.1 1009.2 0.0
23/04:00pm 31.6 25.3 -1.2 12 15.9 WNW 22 35 12 19 1011.1 1009.2 0.0
23/03:30pm 32.4 26.4 -1.8 11 16.4 WNW 20 35 11 19 1011.3 1009.4 0.0
23/03:00pm 32.1 25.8 -0.9 12 16.1 NW 22 41 12 22 1011.6 1009.7 0.0
23/02:30pm 31.9 26.1 0.1 13 15.7 NW 20 35 11 19 1011.8 1010.0 0.0
23/02:00pm 31.4 25.2 -0.3 13 15.5 W 22 46 12 25 1012.2 1010.4 0.0
23/01:30pm 31.4 24.7 -1.4 12 15.8 NW 24 54 13 29 1012.6 1010.8 0.0
23/01:23pm 31.1 24.7 -1.6 12 15.6 WNW 22 54 12 29 1012.7 1010.9 0.0
23/01:00pm 30.4 26.4 2.6 17 14.2 W 13 26 7 14 1013.3 1011.4 0.0
23/12:30pm 30.1 24.7 2.4 17 14.1 NW 20 35 11 19 1013.9 1012.1 0.0
23/12:00pm 29.3 25.3 4.7 21 12.9 W 15 32 8 17 1014.4 1012.6 0.0
23/11:30am 28.2 25.9 7.4 27 11.4 WSW 9 26 5 14 1015.0 1013.2 0.0
23/11:00am 26.8 25.1 8.3 31 10.2 W 7 19 4 10 1015.5 1013.7 0.0
23/10:30am 25.9 24.4 8.4 33 9.6 W 6 13 3 7 1016.0 1014.2 0.0
23/10:00am 25.2 23.8 9.5 37 8.8 S 7 17 4 9 1016.2 1014.4 0.0
23/09:30am 24.3 22.7 10.2 41 7.9 S 9 17 5 9 1016.5 1014.7 0.0
23/09:00am 23.0 21.0 10.1 44 7.2 SSE 11 20 6 11 1016.5 1014.7 0.0
23/08:30am 22.3 20.0 10.5 47 6.6 SSE 13 24 7 13 1016.5 1014.7 0.0
23/08:00am 21.9 19.5 10.1 47 6.5 S 13 20 7 11 1016.4 1014.6 0.0
23/07:30am 21.2 19.3 10.4 50 6.0 S 11 19 6 10 1016.1 1014.3 0.0
23/07:08am 20.2 19.0 9.7 51 5.7 S 6 9 3 5 1015.8 1014.0 0.0
23/07:00am 19.8 18.6 9.7 52 5.5 SSW 6 9 3 5 1015.7 1013.8 0.0
23/06:47am 19.4 18.5 9.3 52 5.4 SSW 4 6 2 3 1015.4 1013.6 0.0
23/06:30am 18.6 17.4 9.4 55 4.9 W 6 7 3 4 1015.1 1013.3 0.0
23/06:00am 17.3 15.8 9.0 58 4.4 W 7 9 4 5 1014.8 1013.0 0.0
23/05:30am 17.8 16.3 8.6 55 4.9 WSW 6 7 3 4 1014.5 1012.7 0.0
23/05:00am 18.6 17.0 8.8 53 5.2 W 7 11 4 6 1014.2 1012.4 0.0
23/04:30am 18.8 16.7 8.2 50 5.6 W 9 11 5 6 1013.9 1012.1 0.0
23/04:00am 19.3 17.4 7.7 47 6.1 WNW 7 9 4 5 1013.7 1011.9 0.0
23/03:30am 20.2 18.2 7.2 43 6.8 W 7 11 4 6 1013.5 1011.6 0.0
23/03:00am 20.5 17.9 6.1 39 7.4 W 9 13 5 7 1013.5 1011.6 0.0
23/02:30am 21.0 18.3 5.4 36 7.9 W 9 13 5 7 1013.4 1011.5 0.0
23/02:00am 21.7 18.4 4.7 33 8.5 W 11 17 6 9 1013.5 1011.6 0.0
23/01:30am 21.8 18.2 3.0 29 9.1 W 11 17 6 9 1013.6 1011.7 0.0
23/01:00am 20.0 17.0 -1.7 23 9.5 W 4 7 2 4 1013.6 1011.7 0.0
23/12:30am 22.1 18.4 0.0 23 10.2 WNW 9 11 5 6 1013.6 1011.7 0.0
23/12:00am 22.2 18.3 -1.8 20 10.7 WNW 9 9 5 5 1013.7 1011.9 0.0
 
Date/Time
WST
Temp
°C
App
Temp
°C
Dew
Point
°C
Rel
Hum
%
Delta-T
°C
Wind Press
QNH
hPa
Press
MSL
hPa
Rain since
9am
mm
Dir  Spd
km/h
Gust
km/h
Spd
kts
Gust
kts
22/11:30pm 22.1 18.4 -2.6 19 10.8 WNW 7 9 4 5 1013.8 1012.0 0.0
22/11:00pm 22.9 18.9 -2.6 18 11.2 WNW 9 9 5 5 1014.0 1012.2 0.0
22/10:30pm 23.5 19.9 -2.2 18 11.5 W 7 13 4 7 1014.0 1012.2 0.0
22/10:00pm 25.9 21.1 -2.7 15 12.9 WNW 13 20 7 11 1013.7 1011.9 0.0
22/09:30pm 25.1 19.7 -4.2 14 12.8 NW 15 20 8 11 1013.5 1011.6 0.0
22/09:00pm 26.0 20.7 -3.5 14 13.1 NW 15 19 8 10 1013.3 1011.4 0.0
22/08:30pm 26.2 20.8 -4.4 13 13.4 NW 15 17 8 9 1013.0 1011.2 0.0
22/08:00pm 27.0 21.6 -4.8 12 13.9 NW 15 17 8 9 1012.6 1010.8 0.0
22/07:30pm 27.5 22.1 -4.4 12 14.1 NW 15 19 8 10 1012.3 1010.5 0.0
22/07:00pm 28.7 23.3 -4.6 11 14.9 NW 15 19 8 10 1012.0 1010.2 0.0
22/06:30pm 30.1 24.3 -4.8 10 15.7 NW 17 20 9 11 1011.7 1009.9 0.0
22/06:00pm 31.4 25.0 -5.2 9 16.5 WNW 20 30 11 16 1011.4 1009.5 0.0
22/05:30pm 32.6 25.5 -4.3 9 17.0 WNW 24 32 13 17 1011.2 1009.3 0.0
22/05:00pm 33.5 25.6 -5.2 8 17.7 WNW 28 39 15 21 1011.0 1009.1 0.0
22/04:30pm 33.8 25.9 -5.0 8 17.9 W 28 44 15 24 1011.0 1009.1 0.0
22/04:14pm 33.9 26.0 -4.9 8 17.9 WNW 28 46 15 25 1011.1 1009.2 0.0
22/04:00pm 34.6 26.0 -4.4 8 18.3 NW 32 46 17 25 1010.9 1009.0 0.0
22/03:30pm 34.6 25.4 -4.4 8 18.2 WNW 35 46 19 25 1010.9 1009.0 0.0
22/03:00pm 35.1 26.9 -4.1 8 18.5 NW 30 52 16 28 1011.0 1009.1 0.0
22/02:30pm 34.9 26.9 -2.6 9 18.1 NW 30 48 16 26 1011.3 1009.4 0.0
22/02:17pm 35.1 27.5 -2.5 9 18.2 NW 28 46 15 25 1011.3 1009.4 0.0
22/02:00pm 34.8 26.4 -2.7 9 18.1 NW 32 44 17 24 1011.4 1009.5 0.0
22/01:33pm 34.3 26.2 -3.1 9 17.8 NW 30 48 16 26 1011.8 1010.0 0.0
22/01:30pm 34.0 25.9 -3.3 9 17.7 NW 30 41 16 22 1011.9 1010.1 0.0
22/01:13pm 34.5 26.8 -2.9 9 17.9 NW 28 48 15 26 1012.2 1010.4 0.0
22/01:00pm 34.2 27.4 -1.7 10 17.5 WNW 24 41 13 22 1012.5 1010.7 0.0
22/12:31pm 34.1 26.5 -1.8 10 17.5 WNW 28 48 15 26 1012.8 1011.0 0.0
22/12:30pm 34.0 26.8 -1.9 10 17.4 WNW 26 48 14 26 1012.8 1011.0 0.0
22/12:00pm 34.3 28.5 -0.4 11 17.3 WNW 20 37 11 20 1013.4 1011.5 0.0
22/11:30am 32.5 28.1 0.6 13 16.0 WNW 13 26 7 14 1013.9 1012.1 0.0
22/11:00am 32.2 26.6 1.3 14 15.6 WSW 20 30 11 16 1014.2 1012.4 0.0
22/10:30am 30.7 25.8 2.0 16 14.5 WSW 17 28 9 15 1014.9 1013.1 0.0
22/10:00am 30.1 26.8 2.4 17 14.1 W 9 19 5 10 1015.1 1013.3 0.0
22/09:30am 29.4 26.3 3.4 19 13.4 SSW 9 19 5 10 1015.2 1013.4 0.0
22/09:00am 29.1 26.5 3.1 19 13.3 WSW 6 13 3 7 1015.3 1013.5 0.0
22/08:30am 27.4 24.2 1.0 18 12.9 WSW 7 11 4 6 1015.2 1013.4 0.0
22/08:00am 26.0 23.7 0.6 19 12.2 WNW 2 4 1 2 1014.9 1013.1 0.0
22/07:30am 24.3 22.2 1.9 23 10.9 NNW 2 6 1 3 1014.8 1013.0 0.0
22/07:00am 21.6 19.5 3.8 31 8.8 W 4 6 2 3 1014.4 1012.6 0.0
22/06:30am 18.4 15.8 3.1 36 7.3 W 6 7 3 4 1014.0 1012.2 0.0
22/06:00am 16.3 14.5 3.4 42 6.1 NNW 2 4 1 2 1013.8 1012.0 0.0
22/05:30am 17.2 15.4 3.5 40 6.5 ENE 2 4 1 2 1013.5 1011.6 0.0
22/05:00am 17.3 15.5 3.2 39 6.7 NNW 2 6 1 3 1013.3 1011.4 0.0
22/04:30am 18.4 15.9 3.8 38 7.0 W 6 9 3 5 1013.0 1011.2 0.0
22/04:00am 19.2 17.1 3.8 36 7.5 WSW 4 6 2 3 1012.7 1010.9 0.0
22/03:30am 20.3 18.3 4.4 35 7.9 ESE 4 4 2 2 1012.5 1010.7 0.0
22/03:00am 22.0 19.0 4.1 31 8.9 W 9 13 5 7 1012.2 1010.4 0.0
22/02:30am 23.2 19.5 4.2 29 9.5 W 13 19 7 10 1012.1 1010.3 0.0
22/02:00am 23.5 19.8 4.5 29 9.6 W 13 19 7 10 1012.3 1010.5 0.0
22/01:30am 24.1 20.7 4.0 27 10.1 W 11 17 6 9 1012.4 1010.6 0.0
22/01:00am 24.9 21.1 4.1 26 10.5 WNW 13 20 7 11 1012.4 1010.6 0.0
22/12:30am 25.5 21.0 4.0 25 10.9 WNW 17 22 9 12 1012.5 1010.7 0.0
22/12:00am 24.7 21.2 3.4 25 10.6 WNW 11 17 6 9 1012.7 1010.9 0.0
 
Date/Time
WST
Temp
°C
App
Temp
°C
Dew
Point
°C
Rel
Hum
%
Delta-T
°C
Wind Press
QNH
hPa
Press
MSL
hPa
Rain since
9am
mm
Dir  Spd
km/h
Gust
km/h
Spd
kts
Gust
kts
21/11:30pm 24.2 20.9 2.4 24 10.7 WNW 9 13 5 7 1012.9 1011.1 0.0
21/11:00pm 25.8 21.4 2.5 22 11.5 WNW 15 20 8 11 1013.0 1011.2 0.0
21/10:30pm 26.6 21.1 1.8 20 12.2 NW 20 26 11 14 1012.6 1010.8 0.0
21/10:00pm 27.5 21.8 0.3 17 13.1 NW 20 26 11 14 1012.8 1011.0 0.0
21/09:30pm 27.8 21.7 -2.1 14 13.8 NW 20 28 11 15 1012.8 1011.0 0.0
21/09:00pm 27.3 21.6 -3.5 13 13.8 NW 17 19 9 10 1012.7 1010.9 0.0
21/08:30pm 28.0 22.4 -3.0 13 14.1 NW 17 20 9 11 1012.5 1010.7 0.0
21/08:00pm 28.2 23.0 -2.8 13 14.2 NNW 15 17 8 9 1012.3 1010.5 0.0
21/07:30pm 28.5 22.9 -2.6 13 14.3 NW 17 19 9 10 1012.0 1010.2 0.0
21/07:00pm 28.7 23.9 -2.4 13 14.4 NNW 13 15 7 8 1011.8 1010.0 0.0
21/06:30pm 30.2 25.3 -3.5 11 15.5 NW 13 13 7 7 1011.5 1009.6 0.0
21/06:00pm 32.1 27.2 -3.3 10 16.6 NW 13 17 7 9 1011.3 1009.4 0.0
21/05:30pm 33.9 27.3 -3.4 9 17.6 WNW 22 30 12 16 1011.2 1009.3 0.0
21/05:00pm 34.8 28.8 -2.7 9 18.1 WNW 19 32 10 17 1011.0 1009.1 0.0
21/04:30pm 35.1 29.2 -2.5 9 18.2 W 19 32 10 17 1011.0 1009.1 0.0
21/04:00pm 35.5 28.7 -2.2 9 18.4 NW 24 37 13 20 1011.0 1009.1 0.0
21/03:30pm 35.8 29.9 -2.0 9 18.5 W 19 44 10 24 1011.2 1009.3 0.0
21/03:00pm 35.4 29.9 -2.3 9 18.4 W 17 33 9 18 1011.3 1009.4 0.0
21/02:30pm 35.3 29.2 -2.3 9 18.3 W 20 35 11 19 1011.6 1009.7 0.0
21/02:00pm 35.1 29.7 -1.1 10 17.9 WNW 17 32 9 17 1012.1 1010.3 0.0
21/01:30pm 35.6 31.0 -0.7 10 18.1 W 13 26 7 14 1012.6 1010.8 0.0
21/01:00pm 34.6 30.9 -0.1 11 17.4 WNW 9 24 5 13 1013.1 1011.3 0.0
21/12:30pm 33.6 29.4 -0.9 11 17.0 WNW 11 28 6 15 1013.7 1011.9 0.0
21/12:00pm 33.5 29.3 -1.0 11 16.9 SSW 11 24 6 13 1014.2 1012.4 0.0
21/11:30am 32.5 28.4 -0.5 12 16.2 SSE 11 17 6 9 1014.6 1012.8 0.0
21/11:00am 31.4 28.2 -0.3 13 15.5 N 6 11 3 6 1015.1 1013.3 0.0
21/10:30am 30.3 27.3 1.7 16 14.4 ESE 7 15 4 8 1015.7 1013.8 0.0
21/10:00am 29.6 26.2 2.0 17 13.9 SSE 9 17 5 9 1016.0 1014.2 0.0
21/09:30am 28.2 23.7 2.4 19 13.0 SE 15 22 8 12 1016.1 1014.3 0.0

Other Formats:

Comma delimited format used in spreadsheet applications
http://www.bom.gov.au/fwo/IDW60801/IDW60801.99737.axf

JavaScript Object Notation format (JSON) in row-major order
http://www.bom.gov.au/fwo/IDW60801/IDW60801.99737.json